地図

経路データ

SID SEASON NUMBER BASIN SUBBASIN NAME ISO_TIME NATURE LAT LON WMO_WIND WMO_PRES WMO_AGENCY TRACK_TYPE DIST2LAND LANDFALL IFLAG USA_AGENCY USA_ATCF_ID USA_LAT USA_LON USA_RECORD USA_STATUS USA_WIND USA_PRES USA_SSHS USA_R34_NE USA_R34_SE USA_R34_SW USA_R34_NW USA_R50_NE USA_R50_SE USA_R50_SW USA_R50_NW USA_R64_NE USA_R64_SE USA_R64_SW USA_R64_NW USA_POCI USA_ROCI USA_RMW USA_EYE TOKYO_LAT TOKYO_LON TOKYO_GRADE TOKYO_WIND TOKYO_PRES TOKYO_R50_DIR TOKYO_R50_LONG TOKYO_R50_SHORT TOKYO_R30_DIR TOKYO_R30_LONG TOKYO_R30_SHORT TOKYO_LAND CMA_LAT CMA_LON CMA_CAT CMA_WIND CMA_PRES HKO_LAT HKO_LON HKO_CAT HKO_WIND HKO_PRES NEWDELHI_LAT NEWDELHI_LON NEWDELHI_GRADE NEWDELHI_WIND NEWDELHI_PRES NEWDELHI_CI NEWDELHI_DP NEWDELHI_POCI REUNION_LAT REUNION_LON REUNION_TYPE REUNION_WIND REUNION_PRES REUNION_TNUM REUNION_CI REUNION_RMW REUNION_R34_NE REUNION_R34_SE REUNION_R34_SW REUNION_R34_NW REUNION_R50_NE REUNION_R50_SE REUNION_R50_SW REUNION_R50_NW REUNION_R64_NE REUNION_R64_SE REUNION_R64_SW REUNION_R64_NW BOM_LAT BOM_LON BOM_TYPE BOM_WIND BOM_PRES BOM_TNUM BOM_CI BOM_RMW BOM_R34_NE BOM_R34_SE BOM_R34_SW BOM_R34_NW BOM_R50_NE BOM_R50_SE BOM_R50_SW BOM_R50_NW BOM_R64_NE BOM_R64_SE BOM_R64_SW BOM_R64_NW BOM_ROCI BOM_POCI BOM_EYE BOM_POS_METHOD BOM_PRES_METHOD NADI_LAT NADI_LON NADI_CAT NADI_WIND NADI_PRES WELLINGTON_LAT WELLINGTON_LON WELLINGTON_WIND WELLINGTON_PRES DS824_LAT DS824_LON DS824_STAGE DS824_WIND DS824_PRES TD9636_LAT TD9636_LON TD9636_STAGE TD9636_WIND TD9636_PRES TD9635_LAT TD9635_LON TD9635_WIND TD9635_PRES TD9635_ROCI NEUMANN_LAT NEUMANN_LON NEUMANN_CLASS NEUMANN_WIND NEUMANN_PRES MLC_LAT MLC_LON MLC_CLASS MLC_WIND MLC_PRES USA_GUST BOM_GUST BOM_GUST_PER REUNION_GUST REUNION_GUST_PER USA_SEAHGT USA_SEARAD_NE USA_SEARAD_SE USA_SEARAD_SW USA_SEARAD_NW STORM_SPEED STORM_DIR
1928356S07097 1929 70 SI WA NOT_NAMED 1928-12-21 06:00:00 NR -6.80000 96.6000 main 625 625 _____O________ -1 -6.80000 96.6000 99 9.90000 6 214
1928356S07097 1929 70 SI WA NOT_NAMED 1928-12-21 09:00:00 NR -7.06080 96.4212 main 665 665 _____P________ -1 -7.06080 96.4212 99 6 213
1928356S07097 1929 70 SI WA NOT_NAMED 1928-12-21 12:00:00 NR -7.32170 96.2533 main 690 690 _____P________ -1 -7.32170 96.2533 99 6 211
1928356S07097 1929 70 SI WA NOT_NAMED 1928-12-21 15:00:00 NR -7.58288 96.1074 main 730 730 _____P________ -1 -7.58288 96.1074 99 6 206
1928356S07097 1929 70 SI WA NOT_NAMED 1928-12-21 18:00:00 NR -7.84453 95.9947 main 755 755 _____P________ -1 -7.84453 95.9947 99 6 199
1928356S07097 1929 70 SI WA NOT_NAMED 1928-12-21 21:00:00 NR -8.10686 95.9264 main 790 790 _____P________ -1 -8.10686 95.9264 99 5 188
1928356S07097 1929 70 SI WA NOT_NAMED 1928-12-22 00:00:00 NR -8.37008 95.9137 main 820 820 _____P________ -1 -8.37008 95.9137 99 5 175
1928356S07097 1929 70 SI WA NOT_NAMED 1928-12-22 03:00:00 NR -8.63441 95.9678 main 835 835 _____P________ -1 -8.63441 95.9678 99 6 161
1928356S07097 1929 70 SI WA NOT_NAMED 1928-12-22 06:00:00 NR -8.90000 96.1000 main 862 862 _____O________ -1 -8.90000 96.1000 99 9.90000 6 147
1928356S07097 1929 70 SI WA NOT_NAMED 1928-12-22 09:00:00 NR -9.16682 96.3173 main 882 873 _____P________ -1 -9.16682 96.3173 99 7 137
1928356S07097 1929 70 SI WA NOT_NAMED 1928-12-22 12:00:00 NR -9.43414 96.6094 main 873 865 _____P________ -1 -9.43414 96.6094 99 8 130
1928356S07097 1929 70 SI WA NOT_NAMED 1928-12-22 15:00:00 NR -9.70106 96.9614 main 866 859 _____P________ -1 -9.70106 96.9614 99 9 126
1928356S07097 1929 70 SI WA NOT_NAMED 1928-12-22 18:00:00 NR -9.96668 97.3586 main 862 851 _____P________ -1 -9.96668 97.3586 99 10 123
1928356S07097 1929 70 SI WA NOT_NAMED 1928-12-22 21:00:00 NR -10.2301 97.7859 main 851 840 _____P________ -1 -10.2301 97.7859 99 10 121
1928356S07097 1929 70 SI WA NOT_NAMED 1928-12-23 00:00:00 NR -10.4906 98.2286 main 848 838 _____P________ -1 -10.4906 98.2286 99 10 121
1928356S07097 1929 70 SI WA NOT_NAMED 1928-12-23 03:00:00 NR -10.7475 98.6717 main 833 819 _____P________ -1 -10.7475 98.6717 99 10 121
1928356S07097 1929 70 SI WA NOT_NAMED 1928-12-23 06:00:00 NR -11.0000 99.1000 main 819 797 _____O________ -1 -11.0000 99.1000 99 9.90000 9 123
1928356S07097 1929 70 SI WA NOT_NAMED 1928-12-23 09:00:00 NR -11.2619 99.4705 main 803 793 _____P________ -1 -11.2619 99.4705 99 9 126
1928356S07097 1929 70 SI WA NOT_NAMED 1928-12-23 12:00:00 NR -11.5217 99.8369 main 793 776 _____P________ -1 -11.5217 99.8369 99 9 126
1928356S07097 1929 70 SI WA NOT_NAMED 1928-12-23 15:00:00 NR -11.7768 100.197 main 784 776 _____P________ -1 -11.7768 100.197 99 9 126
1928356S07097 1929 70 SI WA NOT_NAMED 1928-12-23 18:00:00 NR -12.0249 100.547 main 778 770 _____P________ -1 -12.0249 100.547 99 8 126
1928356S07097 1929 70 SI WA NOT_NAMED 1928-12-23 21:00:00 NR -12.2636 100.885 main 775 769 _____P________ -1 -12.2636 100.885 99 8 126
1928356S07097 1929 70 SI WA NOT_NAMED 1928-12-24 00:00:00 NR -12.4906 101.209 main 774 768 _____P________ -1 -12.4906 101.209 99 8 126
1928356S07097 1929 70 SI WA NOT_NAMED 1928-12-24 03:00:00 NR -12.7035 101.515 main 775 769 _____P________ -1 -12.7035 101.515 99 7 125
1928356S07097 1929 70 SI WA NOT_NAMED 1928-12-24 06:00:00 NR -12.9000 101.800 main 778 773 _____O________ -1 -12.9000 101.800 99 9.90000 7 125
1928356S07097 1929 70 SI WA NOT_NAMED 1928-12-24 09:00:00 NR -13.0858 102.077 main 783 778 _____P________ -1 -13.0858 102.077 99 6 124
1928356S07097 1929 70 SI WA NOT_NAMED 1928-12-24 12:00:00 NR -13.2562 102.334 main 794 785 _____P________ -1 -13.2562 102.334 99 6 124
1928356S07097 1929 70 SI WA NOT_NAMED 1928-12-24 15:00:00 NR -13.4121 102.573 main 790 788 _____P________ -1 -13.4121 102.573 99 5 124
1928356S07097 1929 70 SI WA NOT_NAMED 1928-12-24 18:00:00 NR -13.5543 102.793 main 798 792 _____P________ -1 -13.5543 102.793 99 5 123
1928356S07097 1929 70 SI WA NOT_NAMED 1928-12-24 21:00:00 NR -13.6834 102.996 main 797 792 _____P________ -1 -13.6834 102.996 99 5 123
1928356S07097 1929 70 SI WA NOT_NAMED 1928-12-25 00:00:00 NR -13.8002 103.181 main 797 792 _____P________ -1 -13.8002 103.181 99 4 123
1928356S07097 1929 70 SI WA NOT_NAMED 1928-12-25 03:00:00 NR -13.9055 103.349 main 802 798 _____P________ -1 -13.9055 103.349 99 4 123
1928356S07097 1929 70 SI WA NOT_NAMED 1928-12-25 06:00:00 NR -14.0000 103.500 main 804 800 _____O________ -1 -14.0000 103.500 99 9.90000 3 123
1928356S07097 1929 70 SI WA NOT_NAMED 1928-12-25 09:00:00 NR -14.0845 103.635 main 810 806 _____P________ -1 -14.0845 103.635 99 3 123
1928356S07097 1929 70 SI WA NOT_NAMED 1928-12-25 12:00:00 NR -14.1602 103.757 main 812 809 _____P________ -1 -14.1602 103.757 99 3 123
1928356S07097 1929 70 SI WA NOT_NAMED 1928-12-25 15:00:00 NR -14.2284 103.866 main 809 809 _____P________ -1 -14.2284 103.866 99 2 123
1928356S07097 1929 70 SI WA NOT_NAMED 1928-12-25 18:00:00 NR -14.2902 103.965 main 816 812 _____P________ -1 -14.2902 103.965 99 2 123
1928356S07097 1929 70 SI WA NOT_NAMED 1928-12-25 21:00:00 NR -14.3471 104.056 main 812 812 _____P________ -1 -14.3471 104.056 99 2 122
1928356S07097 1929 70 SI WA NOT_NAMED 1928-12-26 00:00:00 NR -14.4002 104.141 main 823 819 _____P________ -1 -14.4002 104.141 99 2 123
1928356S07097 1929 70 SI WA NOT_NAMED 1928-12-26 03:00:00 NR -14.4507 104.221 main 830 827 _____P________ -1 -14.4507 104.221 99 2 123
1928356S07097 1929 70 SI WA NOT_NAMED 1928-12-26 06:00:00 NR -14.5000 104.300 main 827 _____O________ -1 -14.5000 104.300 99 9.90000 2 121

IBTrACS Databaseについて

本データベースは、米国NOAAが公開する1842年以降の世界の熱帯低気圧のベストトラックデータアーカイブInternational Best Track Archive for Climate Stewardship (IBTrACS)を、ウェブで閲覧しやすい形式に変換したものです。

最終更新日:2021-11-26